Time;durP1;ratioP1;P1;durP2;ratioP2;P2;SDS_P1;SDS_P2;PMS_P1;PMS_P2;Temp;Humidity;BMP_temperature;BMP_pressure;BME280_temperature;BME280_humidity;BME280_pressure;Samples;Min_cycle;Max_cycle;Signal;HPM_P1;HPM_P2
2024/03/23 00:00:34;;;;;;;3.83;2.40;;;;;;;;;;4808881;29;20229;-84
2024/03/23 00:03:39;;;;;;;4.83;2.67;;;;;;;;;;4809156;29;20224;-84
2024/03/23 00:06:44;;;;;;;3.50;2.20;;;;;;;;;;4808430;29;20185;-84
2024/03/23 00:09:49;;;;;;;7.83;3.03;;;;;;;;;;4809164;29;20236;-84
2024/03/23 00:12:54;;;;;;;3.93;2.50;;;;;;;;;;4808887;29;20181;-85
2024/03/23 00:16:00;;;;;;;4.10;2.70;;;;;;;;;;4808547;29;20189;-85
2024/03/23 00:19:06;;;;;;;4.07;2.60;;;;;;;;;;4809964;29;20193;-85
2024/03/23 00:22:11;;;;;;;3.57;2.93;;;;;;;;;;4798786;29;20212;-84
2024/03/23 00:25:17;;;;;;;3.97;2.53;;;;;;;;;;4811079;29;20189;-84
2024/03/23 00:28:22;;;;;;;3.93;2.60;;;;;;;;;;4802223;29;20533;-84
2024/03/23 00:31:28;;;;;;;4.10;2.83;;;;;;;;;;4813072;29;20216;-83
2024/03/23 00:34:33;;;;;;;6.27;2.97;;;;;;;;;;4812063;29;20185;-84
2024/03/23 00:37:38;;;;;;;4.13;3.13;;;;;;;;;;4812022;29;20197;-84
2024/03/23 00:40:43;;;;;;;3.27;2.73;;;;;;;;;;4812879;29;20726;-84
2024/03/23 00:43:48;;;;;;;4.93;3.37;;;;;;;;;;4822329;29;20212;-84
2024/03/23 00:46:54;;;;;;;6.47;3.30;;;;;;;;;;4811348;29;20193;-84
2024/03/23 00:49:59;;;;;;;5.80;3.00;;;;;;;;;;4811907;29;20228;-84
2024/03/23 00:53:04;;;;;;;4.23;2.90;;;;;;;;;;4812302;29;20181;-84
2024/03/23 00:56:08;;;;;;;5.00;3.13;;;;;;;;;;4821570;29;20185;-84
2024/03/23 00:59:13;;;;;;;4.63;3.00;;;;;;;;;;4810175;29;20189;-83
2024/03/23 01:02:18;;;;;;;7.60;3.20;;;;;;;;;;4810513;29;20189;-84
2024/03/23 01:05:22;;;;;;;5.13;3.27;;;;;;;;;;4811579;29;20643;-83
2024/03/23 01:08:26;;;;;;;5.53;3.23;;;;;;;;;;4821525;29;20647;-84
2024/03/23 01:11:30;;;;;;;3.93;2.67;;;;;;;;;;4821029;29;20221;-85
2024/03/23 01:14:35;;;;;;;4.63;3.13;;;;;;;;;;4816361;29;20189;-84
2024/03/23 01:17:40;;;;;;;5.33;2.90;;;;;;;;;;4821353;29;20189;-83
2024/03/23 01:20:45;;;;;;;5.90;3.30;;;;;;;;;;4811829;29;20224;-84
2024/03/23 01:23:56;;;;;;;7.10;3.10;;;;;;;;;;4820627;29;20212;-83
2024/03/23 01:35:38;;;;;;;4.07;2.30;;;;;;;;;;4816563;29;20201;-83
2024/03/23 01:43:04;;;;;;;4.67;2.77;;;;;;;;;;4812884;29;20228;-83
2024/03/23 01:46:09;;;;;;;3.37;2.63;;;;;;;;;;4813726;29;20193;-83
2024/03/23 01:49:13;;;;;;;3.50;2.67;;;;;;;;;;4823902;29;20181;-83
2024/03/23 01:52:17;;;;;;;4.07;2.83;;;;;;;;;;4833962;29;20185;-83
2024/03/23 01:55:22;;;;;;;5.00;2.80;;;;;;;;;;4821582;29;20181;-83
2024/03/23 01:58:26;;;;;;;3.13;2.63;;;;;;;;;;4819397;29;20189;-84
2024/03/23 02:01:31;;;;;;;3.40;2.60;;;;;;;;;;4809336;29;20221;-83
2024/03/23 02:04:35;;;;;;;4.80;2.93;;;;;;;;;;4810161;29;20221;-83
2024/03/23 02:07:40;;;;;;;6.70;2.90;;;;;;;;;;4832683;29;20201;-82
2024/03/23 02:10:45;;;;;;;4.47;2.90;;;;;;;;;;4832914;29;20225;-83
2024/03/23 02:13:49;;;;;;;5.60;2.67;;;;;;;;;;4822560;29;20192;-83
2024/03/23 02:16:53;;;;;;;6.53;3.10;;;;;;;;;;4822486;29;20181;-84
2024/03/23 02:19:58;;;;;;;3.90;2.77;;;;;;;;;;4822663;29;20599;-83
2024/03/23 02:23:05;;;;;;;3.27;2.77;;;;;;;;;;4812881;29;20224;-83
2024/03/23 02:26:09;;;;;;;3.87;2.97;;;;;;;;;;4833620;29;20201;-83
2024/03/23 02:29:14;;;;;;;4.10;2.73;;;;;;;;;;4833249;29;20189;-83
2024/03/23 02:32:18;;;;;;;5.37;2.93;;;;;;;;;;4823980;29;20193;-83
2024/03/23 02:35:22;;;;;;;4.07;2.33;;;;;;;;;;4813501;29;20185;-83
2024/03/23 02:38:32;;;;;;;4.50;2.30;;;;;;;;;;4823102;29;20192;-83
2024/03/23 02:42:19;;;;;;;4.47;2.70;;;;;;;;;;4832207;29;20185;-83
2024/03/23 02:45:25;;;;;;;5.73;2.37;;;;;;;;;;4833813;29;20205;-83
2024/03/23 02:48:39;;;;;;;5.57;2.70;;;;;;;;;;4833392;29;20189;-84
2024/03/23 02:51:45;;;;;;;4.77;2.47;;;;;;;;;;4833637;29;20189;-83
2024/03/23 02:54:50;;;;;;;3.50;2.30;;;;;;;;;;4823309;29;20177;-83
2024/03/23 02:57:54;;;;;;;5.40;2.37;;;;;;;;;;4812722;29;20185;-82
2024/03/23 03:00:59;;;;;;;3.80;2.37;;;;;;;;;;4816875;29;20224;-82
2024/03/23 03:04:05;;;;;;;6.10;2.73;;;;;;;;;;4815289;29;20208;-84
2024/03/23 03:07:10;;;;;;;3.90;2.23;;;;;;;;;;4814924;29;20188;-82
2024/03/23 03:11:00;;;;;;;3.17;2.50;;;;;;;;;;4824843;29;20221;-83
2024/03/23 03:14:12;;;;;;;3.43;2.10;;;;;;;;;;4814674;29;20181;-83
2024/03/23 03:17:19;;;;;;;2.83;2.20;;;;;;;;;;4824096;29;20165;-83
2024/03/23 03:21:11;;;;;;;3.57;2.10;;;;;;;;;;4822984;29;20228;-83
2024/03/23 03:24:36;;;;;;;8.63;2.17;;;;;;;;;;4823176;29;20213;-83
2024/03/23 03:27:51;;;;;;;2.90;2.37;;;;;;;;;;4821938;29;20177;-83
2024/03/23 03:30:59;;;;;;;3.60;2.17;;;;;;;;;;4822587;29;20212;-83
2024/03/23 03:34:03;;;;;;;2.20;2.00;;;;;;;;;;4820827;29;20201;-83
2024/03/23 03:37:07;;;;;;;3.83;2.20;;;;;;;;;;4819770;29;20189;-83
2024/03/23 03:40:14;;;;;;;4.40;1.90;;;;;;;;;;4820587;29;20228;-83
2024/03/23 03:43:18;;;;;;;2.77;1.93;;;;;;;;;;4820191;29;20221;-83
2024/03/23 03:46:23;;;;;;;3.47;2.00;;;;;;;;;;4820528;29;20188;-83
2024/03/23 03:49:28;;;;;;;3.10;1.67;;;;;;;;;;4799730;29;20189;-84
2024/03/23 03:52:32;;;;;;;5.27;2.20;;;;;;;;;;4820415;29;20189;-84
2024/03/23 03:55:36;;;;;;;3.70;2.00;;;;;;;;;;4809422;29;20184;-83
2024/03/23 03:58:40;;;;;;;3.60;2.17;;;;;;;;;;4810173;29;20185;-84
2024/03/23 04:01:45;;;;;;;4.60;2.20;;;;;;;;;;4813331;29;20193;-83
2024/03/23 04:04:50;;;;;;;5.37;2.27;;;;;;;;;;4813924;29;20208;-83
2024/03/23 04:07:55;;;;;;;4.80;2.10;;;;;;;;;;4813571;29;20188;-83
2024/03/23 04:10:59;;;;;;;3.17;2.33;;;;;;;;;;4822881;29;20216;-83
2024/03/23 04:14:03;;;;;;;3.13;2.00;;;;;;;;;;4813638;29;20176;-83
2024/03/23 04:17:07;;;;;;;3.73;2.00;;;;;;;;;;4824597;29;20193;-83
2024/03/23 04:20:15;;;;;;;2.97;2.00;;;;;;;;;;4814103;29;20232;-83
2024/03/23 04:23:21;;;;;;;3.37;1.90;;;;;;;;;;4824654;29;20189;-83
2024/03/23 04:26:25;;;;;;;3.60;2.20;;;;;;;;;;4815060;29;20197;-84
2024/03/23 04:29:29;;;;;;;2.90;1.90;;;;;;;;;;4824510;29;20189;-83
2024/03/23 04:32:33;;;;;;;4.27;2.20;;;;;;;;;;4824042;29;20193;-83
2024/03/23 04:35:37;;;;;;;4.03;2.30;;;;;;;;;;4834177;29;20177;-83
2024/03/23 04:38:42;;;;;;;3.17;2.10;;;;;;;;;;4812826;29;20185;-83
2024/03/23 04:41:47;;;;;;;2.83;1.93;;;;;;;;;;4823406;29;20185;-83
2024/03/23 04:44:51;;;;;;;5.13;2.13;;;;;;;;;;4833648;29;20217;-82
2024/03/23 04:47:55;;;;;;;3.50;1.80;;;;;;;;;;4823925;29;20189;-83
2024/03/23 04:50:59;;;;;;;8.27;2.10;;;;;;;;;;4824113;29;20220;-83
2024/03/23 04:54:04;;;;;;;7.07;2.07;;;;;;;;;;4823702;29;20181;-83
2024/03/23 04:57:09;;;;;;;5.60;1.80;;;;;;;;;;4822780;29;20189;-84
2024/03/23 05:00:19;;;;;;;3.33;1.90;;;;;;;;;;4823437;29;20232;-83
2024/03/23 05:03:27;;;;;;;2.27;2.03;;;;;;;;;;4819775;29;20193;-84
2024/03/23 05:06:31;;;;;;;3.57;1.93;;;;;;;;;;4816794;29;20185;-82
2024/03/23 05:09:35;;;;;;;3.60;2.10;;;;;;;;;;4805815;29;20185;-83
2024/03/23 05:12:40;;;;;;;5.97;2.50;;;;;;;;;;4813490;29;20181;-84
2024/03/23 05:15:44;;;;;;;4.60;1.87;;;;;;;;;;4831091;29;20189;-84
2024/03/23 05:18:48;;;;;;;3.10;2.17;;;;;;;;;;4830957;29;20193;-84
2024/03/23 05:21:53;;;;;;;2.70;1.73;;;;;;;;;;4822609;29;20208;-83
2024/03/23 05:24:57;;;;;;;4.00;1.90;;;;;;;;;;4822053;29;20213;-83
2024/03/23 05:28:02;;;;;;;2.80;2.00;;;;;;;;;;4822020;29;20185;-83
2024/03/23 05:31:06;;;;;;;2.60;2.03;;;;;;;;;;4812111;29;20216;-84
2024/03/23 05:34:10;;;;;;;3.10;2.03;;;;;;;;;;4821682;29;20182;-84
2024/03/23 05:37:15;;;;;;;4.17;2.23;;;;;;;;;;4811530;29;20188;-84
2024/03/23 05:40:19;;;;;;;3.90;2.30;;;;;;;;;;4821301;29;20217;-83
2024/03/23 05:43:24;;;;;;;3.27;2.10;;;;;;;;;;4823128;29;20659;-84
2024/03/23 05:46:28;;;;;;;3.40;2.03;;;;;;;;;;4812126;29;20181;-83
2024/03/23 05:49:33;;;;;;;4.03;2.20;;;;;;;;;;4825641;29;20185;-83
2024/03/23 05:52:37;;;;;;;2.30;1.93;;;;;;;;;;4835639;29;20189;-82
2024/03/23 05:55:43;;;;;;;3.30;2.13;;;;;;;;;;4815135;29;20193;-82
2024/03/23 05:58:48;;;;;;;3.67;2.13;;;;;;;;;;4823696;29;20193;-83
2024/03/23 06:01:53;;;;;;;6.17;2.13;;;;;;;;;;4805091;29;20173;-83
2024/03/23 06:04:58;;;;;;;4.43;1.70;;;;;;;;;;4822864;29;20221;-84
2024/03/23 06:08:03;;;;;;;19.03;9.43;;;;;;;;;;4822555;29;20193;-83
2024/03/23 06:11:07;;;;;;;28.07;15.47;;;;;;;;;;4833389;29;20225;-84
2024/03/23 06:14:12;;;;;;;10.33;6.50;;;;;;;;;;4801786;29;20200;-84
2024/03/23 06:17:16;;;;;;;4.07;2.47;;;;;;;;;;4810753;29;20189;-83
2024/03/23 06:20:20;;;;;;;4.77;2.67;;;;;;;;;;4820779;29;20232;-83
2024/03/23 06:23:24;;;;;;;2.90;2.00;;;;;;;;;;4831699;29;20214;-83
2024/03/23 06:26:29;;;;;;;4.10;1.80;;;;;;;;;;4811129;29;20189;-84
2024/03/23 06:29:33;;;;;;;5.30;1.90;;;;;;;;;;4821961;29;20185;-84
2024/03/23 06:32:38;;;;;;;4.73;3.33;;;;;;;;;;4832174;29;20193;-84
2024/03/23 06:35:42;;;;;;;4.47;2.10;;;;;;;;;;4810508;29;20181;-83
2024/03/23 06:38:46;;;;;;;4.73;2.00;;;;;;;;;;4830147;29;20185;-83
2024/03/23 06:41:54;;;;;;;2.27;1.50;;;;;;;;;;4809138;29;20185;-83
2024/03/23 06:44:59;;;;;;;3.63;1.70;;;;;;;;;;4832752;29;20213;-83
2024/03/23 06:48:03;;;;;;;6.77;4.30;;;;;;;;;;4819462;29;20185;-83
2024/03/23 06:51:09;;;;;;;10.00;6.40;;;;;;;;;;4811002;29;20217;-83
2024/03/23 06:54:13;;;;;;;3.20;2.27;;;;;;;;;;4808945;29;20189;-84
2024/03/23 06:57:17;;;;;;;4.73;2.73;;;;;;;;;;4830123;29;20193;-83
2024/03/23 07:00:21;;;;;;;6.03;3.90;;;;;;;;;;4830091;29;20568;-84
2024/03/23 07:03:26;;;;;;;5.70;2.23;;;;;;;;;;4817779;29;20185;-84
2024/03/23 07:06:31;;;;;;;3.20;2.20;;;;;;;;;;4831244;29;20185;-82
2024/03/23 07:09:34;;;;;;;4.67;2.03;;;;;;;;;;4808804;29;20181;-83
2024/03/23 07:12:39;;;;;;;5.97;4.70;;;;;;;;;;4808250;29;20197;-84
2024/03/23 07:15:43;;;;;;;5.63;2.17;;;;;;;;;;4808524;29;20185;-83
2024/03/23 07:18:50;;;;;;;3.57;1.70;;;;;;;;;;4806796;29;20192;-83
2024/03/23 07:21:54;;;;;;;4.97;2.07;;;;;;;;;;4816893;29;20216;-84
2024/03/23 07:25:00;;;;;;;6.20;5.00;;;;;;;;;;4823952;29;20208;-85
2024/03/23 07:28:05;;;;;;;2.53;1.70;;;;;;;;;;4809315;29;20185;-87
2024/03/23 07:31:12;;;;;;;2.37;1.90;;;;;;;;;;4808780;29;20224;-85
2024/03/23 07:34:16;;;;;;;2.33;1.90;;;;;;;;;;4807588;29;20193;-84
2024/03/23 07:37:20;;;;;;;2.27;1.97;;;;;;;;;;4809125;29;20197;-84
2024/03/23 07:40:24;;;;;;;6.03;3.67;;;;;;;;;;4813692;29;20232;-82
2024/03/23 07:43:28;;;;;;;13.40;6.17;;;;;;;;;;4796988;29;20189;-81
2024/03/23 07:46:32;;;;;;;8.63;5.97;;;;;;;;;;4817110;29;20221;-81
2024/03/23 07:49:37;;;;;;;8.93;6.73;;;;;;;;;;4797697;29;20197;-81
2024/03/23 07:52:41;;;;;;;7.80;5.87;;;;;;;;;;4799286;29;20189;-83
2024/03/23 07:56:14;;;;;;;8.43;5.20;;;;;;;;;;4809619;29;20205;-82
2024/03/23 07:59:19;;;;;;;8.00;4.80;;;;;;;;;;4816083;29;20196;-81
2024/03/23 08:02:23;;;;;;;6.37;4.63;;;;;;;;;;4812416;29;20197;-81
2024/03/23 08:05:29;;;;;;;7.10;4.40;;;;;;;;;;4804101;29;20220;-83
2024/03/23 08:08:42;;;;;;;6.73;4.97;;;;;;;;;;4810072;29;20201;-83
2024/03/23 08:11:46;;;;;;;7.33;4.47;;;;;;;;;;4809821;29;20201;-83
2024/03/23 08:14:51;;;;;;;5.97;4.90;;;;;;;;;;4799600;29;20189;-83
2024/03/23 08:17:56;;;;;;;5.60;4.63;;;;;;;;;;4808793;29;20193;-84
2024/03/23 08:21:02;;;;;;;8.83;4.07;;;;;;;;;;4816499;29;20229;-82
2024/03/23 08:24:06;;;;;;;5.37;4.13;;;;;;;;;;4815304;29;20189;-82
2024/03/23 08:27:11;;;;;;;6.40;3.63;;;;;;;;;;4814975;29;20185;-82
2024/03/23 08:30:16;;;;;;;4.83;3.37;;;;;;;;;;4805191;29;20228;-82
2024/03/23 08:33:21;;;;;;;6.07;3.67;;;;;;;;;;4815705;29;20181;-83
2024/03/23 08:36:25;;;;;;;4.13;3.20;;;;;;;;;;4805080;29;20185;-84
2024/03/23 08:39:30;;;;;;;4.67;3.47;;;;;;;;;;4827607;29;20185;-82
2024/03/23 08:42:35;;;;;;;3.87;3.40;;;;;;;;;;4805597;29;20189;-82
2024/03/23 08:45:39;;;;;;;4.70;2.90;;;;;;;;;;4806979;29;20212;-83
2024/03/23 08:48:48;;;;;;;5.40;3.10;;;;;;;;;;4818730;29;20193;-82
2024/03/23 08:51:54;;;;;;;3.70;2.80;;;;;;;;;;4818968;29;20193;-82
2024/03/23 08:54:58;;;;;;;4.87;2.90;;;;;;;;;;4810354;29;20182;-86
2024/03/23 08:58:03;;;;;;;3.73;2.70;;;;;;;;;;4818935;29;20164;-86
2024/03/23 09:01:15;;;;;;;4.10;2.90;;;;;;;;;;4821110;29;20216;-84
2024/03/23 09:04:21;;;;;;;3.23;2.80;;;;;;;;;;4832541;29;20173;-85
2024/03/23 09:07:26;;;;;;;11.43;8.80;;;;;;;;;;4822668;29;20169;-86
2024/03/23 09:10:31;;;;;;;2.60;2.40;;;;;;;;;;4831636;29;20228;-85
2024/03/23 09:13:36;;;;;;;4.30;2.60;;;;;;;;;;4811928;29;20181;-83
2024/03/23 09:16:40;;;;;;;2.27;2.03;;;;;;;;;;4822606;29;20173;-85
2024/03/23 09:19:45;;;;;;;3.30;2.17;;;;;;;;;;4813702;29;20224;-85
2024/03/23 09:22:49;;;;;;;3.60;2.30;;;;;;;;;;4820389;29;20174;-85
2024/03/23 09:25:53;;;;;;;2.40;1.83;;;;;;;;;;4819834;29;20212;-86
2024/03/23 09:28:58;;;;;;;4.70;1.50;;;;;;;;;;4809903;29;20169;-87
2024/03/23 09:32:03;;;;;;;1.43;1.30;;;;;;;;;;4820082;29;20177;-85
2024/03/23 09:35:07;;;;;;;1.47;1.20;;;;;;;;;;4831301;29;20185;-87
2024/03/23 09:38:12;;;;;;;4.83;1.67;;;;;;;;;;4830377;29;20193;-85
2024/03/23 09:41:16;;;;;;;2.00;1.40;;;;;;;;;;4828328;29;20224;-82
2024/03/23 09:44:21;;;;;;;1.87;1.20;;;;;;;;;;4817707;29;20189;-85
2024/03/23 09:47:26;;;;;;;1.77;1.17;;;;;;;;;;4828168;29;20185;-88
2024/03/23 09:50:30;;;;;;;1.30;1.20;;;;;;;;;;4818705;29;20229;-85
2024/03/23 09:53:35;;;;;;;14.13;2.33;;;;;;;;;;4799669;29;20189;-84
2024/03/23 09:56:39;;;;;;;2.40;1.13;;;;;;;;;;4819294;29;20189;-83
2024/03/23 09:59:43;;;;;;;2.03;1.10;;;;;;;;;;4819026;29;20224;-82
2024/03/23 10:02:47;;;;;;;1.20;1.00;;;;;;;;;;4818184;29;20219;-83
2024/03/23 10:06:02;;;;;;;2.70;1.37;;;;;;;;;;4818089;29;20216;-82
2024/03/23 10:09:20;;;;;;;1.87;1.20;;;;;;;;;;4817791;29;20185;-85
2024/03/23 10:12:24;;;;;;;1.20;1.10;;;;;;;;;;4817686;29;20205;-85
2024/03/23 10:15:29;;;;;;;1.97;1.13;;;;;;;;;;4817165;29;20189;-85
2024/03/23 10:18:37;;;;;;;1.03;0.93;;;;;;;;;;4818693;29;20189;-82
2024/03/23 10:21:52;;;;;;;2.23;1.03;;;;;;;;;;4818591;29;20224;-82
2024/03/23 10:25:08;;;;;;;2.58;1.25;;;;;;;;;;4818556;29;20710;-85
2024/03/23 10:28:12;;;;;;;4.03;1.30;;;;;;;;;;4817635;29;20193;-85
2024/03/23 10:31:16;;;;;;;1.30;1.20;;;;;;;;;;4819828;29;20220;-82
2024/03/23 10:34:26;;;;;;;1.33;1.10;;;;;;;;;;4816959;29;20185;-85
2024/03/23 10:37:31;;;;;;;1.70;1.07;;;;;;;;;;4815903;29;20185;-84
2024/03/23 10:40:36;;;;;;;1.00;0.83;;;;;;;;;;4814671;29;20224;-84
2024/03/23 10:43:40;;;;;;;1.00;0.90;;;;;;;;;;4816822;29;20185;-82
2024/03/23 10:46:45;;;;;;;1.27;1.10;;;;;;;;;;4818166;29;20213;-82
2024/03/23 10:49:49;;;;;;;1.27;1.10;;;;;;;;;;4818729;29;20224;-81
2024/03/23 10:52:55;;;;;;;0.93;0.90;;;;;;;;;;4816376;29;20189;-81
2024/03/23 10:56:00;;;;;;;6.00;1.07;;;;;;;;;;4804702;29;20177;-81
2024/03/23 10:59:07;;;;;;;0.90;0.90;;;;;;;;;;4816297;29;20531;-82
2024/03/23 11:02:20;;;;;;;1.53;1.00;;;;;;;;;;4816443;29;20189;-81
2024/03/23 11:05:28;;;;;;;0.87;0.87;;;;;;;;;;4815949;29;20189;-81
2024/03/23 11:08:35;;;;;;;1.00;0.80;;;;;;;;;;4812732;29;20185;-83
2024/03/23 11:11:39;;;;;;;0.90;0.80;;;;;;;;;;4815152;29;20217;-83
2024/03/23 11:14:44;;;;;;;0.93;0.80;;;;;;;;;;4815672;29;20189;-82
2024/03/23 11:18:11;;;;;;;1.20;0.90;;;;;;;;;;4813743;29;20189;-82
2024/03/23 11:21:54;;;;;;;1.00;0.90;;;;;;;;;;4812945;29;20228;-83
2024/03/23 11:24:58;;;;;;;3.40;1.00;;;;;;;;;;4813575;29;20648;-82
2024/03/23 11:28:12;;;;;;;0.83;0.83;;;;;;;;;;4812555;29;20185;-82
2024/03/23 11:31:16;;;;;;;2.03;1.20;;;;;;;;;;4811000;29;20224;-80
2024/03/23 11:34:20;;;;;;;1.10;0.90;;;;;;;;;;4812019;29;20193;-80
2024/03/23 11:37:26;;;;;;;1.27;1.10;;;;;;;;;;4811741;29;20181;-81
2024/03/23 11:40:32;;;;;;;3.37;1.27;;;;;;;;;;4810771;29;20575;-81
2024/03/23 11:43:37;;;;;;;2.47;1.10;;;;;;;;;;4809843;29;20532;-80
2024/03/23 11:46:41;;;;;;;1.43;1.20;;;;;;;;;;4809963;29;20209;-80
2024/03/23 11:49:48;;;;;;;5.00;1.37;;;;;;;;;;4809668;29;20224;-80
2024/03/23 11:53:09;;;;;;;3.03;1.33;;;;;;;;;;4810846;29;20188;-82
2024/03/23 11:56:13;;;;;;;2.10;1.20;;;;;;;;;;4809730;29;20189;-82
2024/03/23 11:59:31;;;;;;;2.23;1.23;;;;;;;;;;4809983;29;20188;-83
2024/03/23 12:02:35;;;;;;;1.70;1.30;;;;;;;;;;4810031;29;20197;-81
2024/03/23 12:05:41;;;;;;;4.10;1.37;;;;;;;;;;4809040;29;20536;-83
2024/03/23 12:08:45;;;;;;;2.67;1.33;;;;;;;;;;4809036;29;20188;-83
2024/03/23 12:11:49;;;;;;;2.40;1.40;;;;;;;;;;4808891;29;20185;-83
2024/03/23 12:15:08;;;;;;;3.93;1.30;;;;;;;;;;4808500;29;20189;-82
2024/03/23 12:18:12;;;;;;;3.17;1.40;;;;;;;;;;4808801;29;20185;-82
2024/03/23 12:21:17;;;;;;;2.00;1.50;;;;;;;;;;4811079;29;20228;-81
2024/03/23 12:24:21;;;;;;;2.23;1.67;;;;;;;;;;4813294;29;20184;-81
2024/03/23 12:27:25;;;;;;;2.00;1.47;;;;;;;;;;4814871;29;20687;-80
2024/03/23 12:30:30;;;;;;;3.17;1.40;;;;;;;;;;4813873;29;20221;-81
2024/03/23 12:33:33;;;;;;;5.23;2.30;;;;;;;;;;4813128;29;20189;-81
2024/03/23 12:36:38;;;;;;;2.67;1.40;;;;;;;;;;4812835;29;20189;-82
2024/03/23 12:39:42;;;;;;;2.97;1.63;;;;;;;;;;4814622;29;20228;-82
2024/03/23 12:42:46;;;;;;;2.87;1.43;;;;;;;;;;4813318;29;20189;-81
2024/03/23 12:45:51;;;;;;;4.57;1.90;;;;;;;;;;4814056;29;20185;-83
2024/03/23 12:48:55;;;;;;;2.30;1.63;;;;;;;;;;4813463;29;20624;-83
2024/03/23 12:51:59;;;;;;;7.87;2.20;;;;;;;;;;4813315;29;20181;-82
2024/03/23 12:55:07;;;;;;;3.03;1.40;;;;;;;;;;4802987;29;20189;-85
2024/03/23 12:58:11;;;;;;;3.63;1.87;;;;;;;;;;4801869;29;20185;-82
2024/03/23 13:01:15;;;;;;;3.50;2.00;;;;;;;;;;4811772;29;20232;-82
2024/03/23 13:04:19;;;;;;;4.13;1.40;;;;;;;;;;4813962;29;20193;-82
2024/03/23 13:07:24;;;;;;;4.13;1.80;;;;;;;;;;4812129;29;20217;-82
2024/03/23 13:10:28;;;;;;;3.47;2.20;;;;;;;;;;4811845;29;20228;-81
2024/03/23 13:13:33;;;;;;;2.60;1.93;;;;;;;;;;4813679;29;20209;-85
2024/03/23 13:16:37;;;;;;;4.73;2.10;;;;;;;;;;4812163;29;20189;-83
2024/03/23 13:19:41;;;;;;;3.83;2.10;;;;;;;;;;4811478;29;20594;-81
2024/03/23 13:22:47;;;;;;;4.23;2.10;;;;;;;;;;4811505;29;20189;-81
2024/03/23 13:25:55;;;;;;;15.60;13.40;;;;;;;;;;4801002;29;20192;-83
2024/03/23 13:28:59;;;;;;;3.80;2.17;;;;;;;;;;4812399;29;20189;-84
2024/03/23 13:32:03;;;;;;;4.10;2.37;;;;;;;;;;4809944;29;20197;-83
2024/03/23 13:35:08;;;;;;;6.50;2.90;;;;;;;;;;4802083;29;20185;-83
2024/03/23 13:38:12;;;;;;;6.93;2.90;;;;;;;;;;4813573;29;20552;-86
2024/03/23 13:41:16;;;;;;;5.27;2.87;;;;;;;;;;4811910;29;20224;-86
2024/03/23 13:44:21;;;;;;;3.87;2.67;;;;;;;;;;4811926;29;20186;-85
2024/03/23 13:47:25;;;;;;;5.27;2.77;;;;;;;;;;4812065;29;20690;-85
2024/03/23 13:50:29;;;;;;;5.10;2.80;;;;;;;;;;4811916;29;20580;-87
2024/03/23 13:53:33;;;;;;;6.10;2.90;;;;;;;;;;4811998;29;20201;-86
2024/03/23 13:56:37;;;;;;;7.87;3.60;;;;;;;;;;4811549;29;20185;-85
2024/03/23 13:59:41;;;;;;;6.13;2.73;;;;;;;;;;4810381;29;20224;-85
2024/03/23 14:02:45;;;;;;;5.00;2.50;;;;;;;;;;4811664;29;20197;-86
2024/03/23 14:05:50;;;;;;;5.73;2.17;;;;;;;;;;4810817;29;20181;-86
2024/03/23 14:08:54;;;;;;;4.13;2.63;;;;;;;;;;4810976;29;20181;-85
2024/03/23 14:12:00;;;;;;;5.20;2.33;;;;;;;;;;4801042;29;20185;-84
2024/03/23 14:15:07;;;;;;;4.40;1.93;;;;;;;;;;4810769;29;20192;-85
2024/03/23 14:18:11;;;;;;;4.10;2.03;;;;;;;;;;4811364;29;20189;-84
2024/03/23 14:21:15;;;;;;;3.63;1.80;;;;;;;;;;4800830;29;20231;-84
2024/03/23 14:24:19;;;;;;;3.77;2.60;;;;;;;;;;4811098;29;20189;-85
2024/03/23 14:27:24;;;;;;;3.43;2.47;;;;;;;;;;4811058;29;20217;-85
2024/03/23 14:30:28;;;;;;;5.73;2.47;;;;;;;;;;4812200;29;20699;-85
2024/03/23 14:33:33;;;;;;;4.87;2.20;;;;;;;;;;4810600;29;20189;-86
2024/03/23 14:36:37;;;;;;;5.13;2.40;;;;;;;;;;4811242;29;20185;-84
2024/03/23 14:39:44;;;;;;;4.87;2.20;;;;;;;;;;4810994;29;20691;-85
2024/03/23 14:42:48;;;;;;;5.80;2.30;;;;;;;;;;4811722;29;20185;-85
2024/03/23 14:46:15;;;;;;;6.93;2.33;;;;;;;;;;4810906;29;20193;-85
2024/03/23 14:49:20;;;;;;;7.20;3.63;;;;;;;;;;4812023;29;20186;-85
2024/03/23 14:52:24;;;;;;;6.27;2.27;;;;;;;;;;4800883;29;20184;-86
2024/03/23 14:55:28;;;;;;;5.70;2.10;;;;;;;;;;4811757;29;20185;-86
2024/03/23 14:58:34;;;;;;;5.53;2.30;;;;;;;;;;4821702;29;20185;-87
2024/03/23 15:01:38;;;;;;;3.93;1.70;;;;;;;;;;4810614;29;20224;-85
2024/03/23 15:04:43;;;;;;;4.30;1.90;;;;;;;;;;4811697;29;20528;-86
2024/03/23 15:07:47;;;;;;;4.57;2.23;;;;;;;;;;4799905;29;20220;-86
2024/03/23 15:10:51;;;;;;;4.37;1.97;;;;;;;;;;4811350;29;20592;-86
2024/03/23 15:13:55;;;;;;;4.00;1.90;;;;;;;;;;4810774;29;20386;-86
2024/03/23 15:17:04;;;;;;;3.53;1.60;;;;;;;;;;4808585;29;20181;-86
2024/03/23 15:20:11;;;;;;;5.77;1.80;;;;;;;;;;4798668;29;20232;-86
2024/03/23 15:23:15;;;;;;;4.47;1.70;;;;;;;;;;4809235;29;20555;-87
2024/03/23 15:26:20;;;;;;;4.83;1.87;;;;;;;;;;4812089;29;20188;-86
2024/03/23 15:29:24;;;;;;;3.80;1.97;;;;;;;;;;4810233;29;20181;-87
2024/03/23 15:32:28;;;;;;;8.33;1.90;;;;;;;;;;4810322;29;20189;-87
2024/03/23 15:35:32;;;;;;;2.57;1.80;;;;;;;;;;4810776;29;20191;-86
2024/03/23 15:38:38;;;;;;;3.97;1.43;;;;;;;;;;4811187;29;20185;-86
2024/03/23 15:41:46;;;;;;;2.87;1.50;;;;;;;;;;4810458;29;20225;-86
2024/03/23 15:44:51;;;;;;;3.80;1.57;;;;;;;;;;4799904;29;20189;-86
2024/03/23 15:47:55;;;;;;;3.93;1.43;;;;;;;;;;4810898;29;20221;-87
2024/03/23 15:51:01;;;;;;;3.67;1.57;;;;;;;;;;4810374;29;20228;-86
2024/03/23 15:54:05;;;;;;;3.83;1.80;;;;;;;;;;4800044;29;20184;-86
2024/03/23 15:57:09;;;;;;;4.43;1.50;;;;;;;;;;4810016;29;20184;-85
2024/03/23 16:00:14;;;;;;;7.07;1.60;;;;;;;;;;4799492;29;20224;-86
2024/03/23 16:03:18;;;;;;;4.43;1.60;;;;;;;;;;4809730;29;20205;-87
2024/03/23 16:06:23;;;;;;;4.97;1.70;;;;;;;;;;4810497;29;20192;-86
2024/03/23 16:09:30;;;;;;;3.80;1.47;;;;;;;;;;4810393;29;20636;-87
2024/03/23 16:12:34;;;;;;;4.87;1.60;;;;;;;;;;4799862;29;20209;-86
2024/03/23 16:15:38;;;;;;;3.50;1.70;;;;;;;;;;4809681;29;20190;-86
2024/03/23 16:18:44;;;;;;;3.37;1.33;;;;;;;;;;4810627;29;20189;-86
2024/03/23 16:21:48;;;;;;;5.43;1.50;;;;;;;;;;4809762;29;20582;-86
2024/03/23 16:24:52;;;;;;;7.13;3.43;;;;;;;;;;4799512;29;20193;-87
2024/03/23 16:27:57;;;;;;;3.70;1.60;;;;;;;;;;4809856;29;20221;-87
2024/03/23 16:31:07;;;;;;;4.30;2.30;;;;;;;;;;4810755;29;20225;-86
2024/03/23 16:34:11;;;;;;;4.13;2.17;;;;;;;;;;4810367;29;20185;-87
2024/03/23 16:37:16;;;;;;;5.00;2.47;;;;;;;;;;4799229;29;20556;-86
2024/03/23 16:40:20;;;;;;;3.30;1.60;;;;;;;;;;4810070;29;20220;-87
2024/03/23 16:43:25;;;;;;;4.90;2.60;;;;;;;;;;4809931;29;20197;-87
2024/03/23 16:46:30;;;;;;;4.83;2.03;;;;;;;;;;4811453;29;20189;-87
2024/03/23 16:49:34;;;;;;;3.37;1.50;;;;;;;;;;4809531;29;20181;-86
2024/03/23 16:52:39;;;;;;;2.23;1.30;;;;;;;;;;4810493;29;20197;-86
2024/03/23 16:55:43;;;;;;;3.70;2.07;;;;;;;;;;4811953;29;20189;-86
2024/03/23 16:58:49;;;;;;;18.77;7.50;;;;;;;;;;4801659;29;20189;-86
2024/03/23 17:01:53;;;;;;;6.40;1.83;;;;;;;;;;4811398;29;20532;-87
2024/03/23 17:04:57;;;;;;;5.00;1.40;;;;;;;;;;4800554;29;20643;-87
2024/03/23 17:08:02;;;;;;;3.87;2.57;;;;;;;;;;4802735;29;20225;-86
2024/03/23 17:11:06;;;;;;;3.47;1.80;;;;;;;;;;4814153;29;20228;-86
2024/03/23 17:14:12;;;;;;;4.23;1.33;;;;;;;;;;4802722;29;20189;-86
2024/03/23 17:17:16;;;;;;;2.23;1.33;;;;;;;;;;4813372;29;20193;-86
2024/03/23 17:20:20;;;;;;;1.60;1.10;;;;;;;;;;4810891;29;20233;-86
2024/03/23 17:23:28;;;;;;;2.40;1.10;;;;;;;;;;4800909;29;20189;-86
2024/03/23 17:26:32;;;;;;;2.53;1.10;;;;;;;;;;4811325;29;20197;-86
2024/03/23 17:29:36;;;;;;;1.80;0.97;;;;;;;;;;4812507;29;20185;-87
2024/03/23 17:32:42;;;;;;;4.70;2.60;;;;;;;;;;4812032;29;20192;-86
2024/03/23 17:35:46;;;;;;;4.03;2.00;;;;;;;;;;4802366;29;20189;-86
2024/03/23 17:38:50;;;;;;;14.63;10.23;;;;;;;;;;4801979;29;20185;-86
2024/03/23 17:41:55;;;;;;;7.13;4.67;;;;;;;;;;4813313;29;20189;-86
2024/03/23 17:44:59;;;;;;;3.00;2.03;;;;;;;;;;4813003;29;20193;-86
2024/03/23 17:48:04;;;;;;;4.00;2.47;;;;;;;;;;4813153;29;20220;-87
2024/03/23 17:51:08;;;;;;;4.17;1.80;;;;;;;;;;4801701;29;20228;-86
2024/03/23 17:54:13;;;;;;;3.90;1.40;;;;;;;;;;4812320;29;20197;-86
2024/03/23 17:57:17;;;;;;;2.40;1.60;;;;;;;;;;4812082;29;20189;-86
2024/03/23 18:00:21;;;;;;;3.13;1.50;;;;;;;;;;4811455;29;20225;-86
2024/03/23 18:03:25;;;;;;;3.97;1.30;;;;;;;;;;4801369;29;20185;-86
2024/03/23 18:06:29;;;;;;;3.30;1.70;;;;;;;;;;4812517;29;20539;-86
2024/03/23 18:09:33;;;;;;;4.23;2.43;;;;;;;;;;4802083;29;20217;-87
2024/03/23 18:12:38;;;;;;;2.50;2.20;;;;;;;;;;4811199;29;20185;-86
2024/03/23 18:15:42;;;;;;;33.60;26.93;;;;;;;;;;4812047;29;20532;-86
2024/03/23 18:18:47;;;;;;;13.87;11.10;;;;;;;;;;4810991;29;20181;-87
2024/03/23 18:21:51;;;;;;;2.90;2.63;;;;;;;;;;4811912;29;20216;-86
2024/03/23 18:24:56;;;;;;;3.97;1.90;;;;;;;;;;4812362;29;20189;-86
2024/03/23 18:28:00;;;;;;;4.37;1.90;;;;;;;;;;4811465;29;20216;-86
2024/03/23 18:31:05;;;;;;;3.10;1.73;;;;;;;;;;4811819;29;20232;-87
2024/03/23 18:34:10;;;;;;;4.37;1.50;;;;;;;;;;4800880;29;20184;-87
2024/03/23 18:37:15;;;;;;;2.30;1.80;;;;;;;;;;4800758;29;20219;-86
2024/03/23 18:40:20;;;;;;;6.50;3.70;;;;;;;;;;4810944;29;20216;-88
2024/03/23 18:43:26;;;;;;;3.40;2.77;;;;;;;;;;4791224;29;20204;-87
2024/03/23 18:46:31;;;;;;;5.27;2.30;;;;;;;;;;4813963;29;20185;-87